Time;durP1;ratioP1;P1;durP2;ratioP2;P2;SDS_P1;SDS_P2;PMS_P1;PMS_P2;Temp;Humidity;BMP_temperature;BMP_pressure;BME280_temperature;BME280_humidity;BME280_pressure;Samples;Min_cycle;Max_cycle;Signal;HPM_P1;HPM_P2
2023/03/26 01:13:52;;;;;;;;;;;;;;;;;;6275665;22;20033;-83
2023/03/26 01:26:36;;;;;;;;;;;;;;;;;;;;;
2023/03/26 01:32:51;;;;;;;;;;;;;;;;;;5912618;24;19971;-82
2023/03/26 01:35:31;;;;;;;;;;;;;;;;;;5940119;24;20014;-83
2023/03/26 02:06:36;;;;;;;;;;;;;;;;;;6269122;22;19933;-82
2023/03/26 02:12:40;;;;;;;;;;;;;;;;;;;;;
2023/03/26 02:15:35;;;;;;;;;;;;;;;;;;;;;
2023/03/26 02:18:22;;;;;;;;;;;;;;;;;;;;;
2023/03/26 02:29:21;;;;;;;;;;;;;;;;;;6268207;22;19992;-84
2023/03/26 02:31:47;;;;;;;;;;;;;;;;;;6233626;22;20009;-84
2023/03/26 02:34:13;;;;;;;;;;;;;;;;;;6237615;22;20202;-84
2023/03/26 02:36:41;;;;;;;;;;;;;;;;;;6213373;22;19995;-84
2023/03/26 02:39:07;;;;;;;;;;;;;;;;;;6237551;22;20406;-86
2023/03/26 02:41:33;;;;;;;;;;;;;;;;;;6237006;22;20505;-86
2023/03/26 02:43:59;;;;;;;;;;;;;;;;;;6209517;22;20280;-86
2023/03/26 02:46:25;;;;;;;;;;;;;;;;;;6235863;22;19946;-86
2023/03/26 02:48:51;;;;;;;;;;;;;;;;;;6207969;22;19961;-84
2023/03/26 02:51:18;;;;;;;;;;;;;;;;;;6209497;22;19923;-84
2023/03/26 02:53:44;;;;;;;;;;;;;;;;;;6211776;22;19989;-84
2023/03/26 02:56:11;;;;;;;;;;;;;;;;;;6215981;22;20272;-84
2023/03/26 02:58:37;;;;;;;;;;;;;;;;;;6242843;22;19927;-84
2023/03/26 03:01:03;;;;;;;;;;;;;;;;;;6237245;22;19923;-84
2023/03/26 03:03:29;;;;;;;;;;;;;;;;;;6237560;22;19962;-84
2023/03/26 03:05:55;;;;;;;;;;;;;;;;;;6234250;22;19919;-84
2023/03/26 03:08:21;;;;;;;;;;;;;;;;;;6212307;22;20376;-84
2023/03/26 03:10:47;;;;;;;;;;;;;;;;;;6208141;22;19990;-84
2023/03/26 03:13:13;;;;;;;;;;;;;;;;;;6215477;22;19919;-83
2023/03/26 03:15:40;;;;;;;;;;;;;;;;;;6216453;22;19922;-84
2023/03/26 03:18:06;;;;;;;;;;;;;;;;;;6215811;22;20010;-84
2023/03/26 03:20:34;;;;;;;;;;;;;;;;;;6215682;22;19967;-84
2023/03/26 03:23:00;;;;;;;;;;;;;;;;;;6213168;22;20705;-84
2023/03/26 03:25:26;;;;;;;;;;;;;;;;;;6240993;22;19919;-84
2023/03/26 03:27:52;;;;;;;;;;;;;;;;;;6211314;22;19951;-84
2023/03/26 03:30:18;;;;;;;;;;;;;;;;;;6238289;22;20005;-84
2023/03/26 03:32:44;;;;;;;;;;;;;;;;;;6209640;22;20288;-84
2023/03/26 03:35:10;;;;;;;;;;;;;;;;;;6215048;22;19919;-84
2023/03/26 03:37:36;;;;;;;;;;;;;;;;;;6240328;22;19977;-84
2023/03/26 03:40:04;;;;;;;;;;;;;;;;;;6237810;22;19915;-83
2023/03/26 03:42:30;;;;;;;;;;;;;;;;;;6214637;22;19920;-84
2023/03/26 03:44:56;;;;;;;;;;;;;;;;;;6206771;22;19919;-84
2023/03/26 03:47:22;;;;;;;;;;;;;;;;;;6210175;22;19915;-84
2023/03/26 03:49:48;;;;;;;;;;;;;;;;;;6210157;22;19926;-84
2023/03/26 03:52:15;;;;;;;;;;;;;;;;;;6207439;22;19986;-86
2023/03/26 03:54:41;;;;;;;;;;;;;;;;;;6208693;22;19960;-86
2023/03/26 03:57:07;;;;;;;;;;;;;;;;;;6210951;22;20306;-86
2023/03/26 03:59:33;;;;;;;;;;;;;;;;;;6212294;22;19919;-87
2023/03/26 04:01:59;;;;;;;;;;;;;;;;;;6208070;22;19937;-87
2023/03/26 04:04:25;;;;;;;;;;;;;;;;;;6236169;22;20083;-84
2023/03/26 04:06:51;;;;;;;;;;;;;;;;;;6207746;22;20291;-84
2023/03/26 04:09:17;;;;;;;;;;;;;;;;;;6209822;22;19919;-84
2023/03/26 04:11:43;;;;;;;;;;;;;;;;;;6232714;22;19926;-84
2023/03/26 04:14:09;;;;;;;;;;;;;;;;;;6212319;22;19923;-84
2023/03/26 04:16:35;;;;;;;;;;;;;;;;;;6211283;22;20340;-84
2023/03/26 04:19:01;;;;;;;;;;;;;;;;;;6208267;22;19925;-84
2023/03/26 04:21:29;;;;;;;;;;;;;;;;;;6210043;22;19923;-84
2023/03/26 04:23:55;;;;;;;;;;;;;;;;;;6233902;22;20439;-84
2023/03/26 04:26:21;;;;;;;;;;;;;;;;;;6233345;22;19946;-83
2023/03/26 04:28:47;;;;;;;;;;;;;;;;;;6232162;22;20252;-84
2023/03/26 04:31:14;;;;;;;;;;;;;;;;;;6211275;22;19919;-84
2023/03/26 04:33:40;;;;;;;;;;;;;;;;;;6211164;22;20457;-84
2023/03/26 04:36:06;;;;;;;;;;;;;;;;;;6211872;22;19919;-84
2023/03/26 04:38:32;;;;;;;;;;;;;;;;;;6216283;22;19919;-84
2023/03/26 04:41:01;;;;;;;;;;;;;;;;;;6237682;22;19977;-84
2023/03/26 04:43:29;;;;;;;;;;;;;;;;;;6267904;22;19915;-84
2023/03/26 04:45:55;;;;;;;;;;;;;;;;;;6232555;22;19985;-84
2023/03/26 04:48:21;;;;;;;;;;;;;;;;;;6262321;22;20025;-84
2023/03/26 04:50:47;;;;;;;;;;;;;;;;;;6234350;22;19961;-83
2023/03/26 04:53:13;;;;;;;;;;;;;;;;;;6240179;22;19969;-84
2023/03/26 04:55:42;;;;;;;;;;;;;;;;;;6234690;22;19927;-84
2023/03/26 04:58:09;;;;;;;;;;;;;;;;;;6236965;22;19927;-84
2023/03/26 05:00:35;;;;;;;;;;;;;;;;;;6260450;22;19919;-83
2023/03/26 05:03:00;;;;;;;;;;;;;;;;;;6232738;22;20608;-84
2023/03/26 05:05:26;;;;;;;;;;;;;;;;;;6235055;22;19919;-84
2023/03/26 05:07:52;;;;;;;;;;;;;;;;;;6207878;22;19941;-83
2023/03/26 05:10:22;;;;;;;;;;;;;;;;;;6236066;22;19930;-83
2023/03/26 05:12:47;;;;;;;;;;;;;;;;;;6261491;22;20382;-85
2023/03/26 05:15:14;;;;;;;;;;;;;;;;;;6236359;22;19971;-85
2023/03/26 05:17:40;;;;;;;;;;;;;;;;;;6209486;22;19919;-85
2023/03/26 05:20:07;;;;;;;;;;;;;;;;;;6211026;22;19919;-85
2023/03/26 05:22:33;;;;;;;;;;;;;;;;;;6262381;22;19923;-85
2023/03/26 05:24:59;;;;;;;;;;;;;;;;;;6260861;22;20283;-85
2023/03/26 05:27:25;;;;;;;;;;;;;;;;;;6210403;22;19950;-85
2023/03/26 05:29:51;;;;;;;;;;;;;;;;;;6207928;22;19970;-85
2023/03/26 05:32:17;;;;;;;;;;;;;;;;;;6265135;22;20343;-85
2023/03/26 05:34:43;;;;;;;;;;;;;;;;;;6261958;22;20097;-85
2023/03/26 05:37:09;;;;;;;;;;;;;;;;;;6267133;22;19923;-85
2023/03/26 05:39:35;;;;;;;;;;;;;;;;;;6211341;22;19919;-85
2023/03/26 05:42:01;;;;;;;;;;;;;;;;;;6234507;22;19924;-85
2023/03/26 05:44:27;;;;;;;;;;;;;;;;;;6212839;22;20441;-85
2023/03/26 05:46:53;;;;;;;;;;;;;;;;;;6233516;22;20351;-85
2023/03/26 05:49:19;;;;;;;;;;;;;;;;;;6237584;22;19938;-85
2023/03/26 05:51:45;;;;;;;;;;;;;;;;;;6210559;22;19989;-86
2023/03/26 05:54:11;;;;;;;;;;;;;;;;;;6238494;22;19915;-85
2023/03/26 05:56:37;;;;;;;;;;;;;;;;;;6211433;22;20368;-85
2023/03/26 05:59:03;;;;;;;;;;;;;;;;;;6262342;22;19926;-85
2023/03/26 06:01:29;;;;;;;;;;;;;;;;;;6236019;22;20453;-86
2023/03/26 06:03:55;;;;;;;;;;;;;;;;;;6233772;22;20355;-85
2023/03/26 06:06:21;;;;;;;;;;;;;;;;;;6210379;22;20278;-85
2023/03/26 06:08:47;;;;;;;;;;;;;;;;;;6263539;22;19989;-85
2023/03/26 06:11:13;;;;;;;;;;;;;;;;;;6265709;22;19919;-86
2023/03/26 06:13:43;;;;;;;;;;;;;;;;;;6238604;22;20044;-85
2023/03/26 06:16:09;;;;;;;;;;;;;;;;;;6209586;22;19951;-85
2023/03/26 06:18:35;;;;;;;;;;;;;;;;;;6237420;22;19962;-85
2023/03/26 06:21:01;;;;;;;;;;;;;;;;;;6235882;22;20316;-86
2023/03/26 06:23:27;;;;;;;;;;;;;;;;;;6214203;22;19930;-85
2023/03/26 06:25:53;;;;;;;;;;;;;;;;;;6234583;22;19919;-85
2023/03/26 06:28:19;;;;;;;;;;;;;;;;;;6211440;22;20450;-85
2023/03/26 06:30:45;;;;;;;;;;;;;;;;;;6207204;22;20395;-85
2023/03/26 06:33:10;;;;;;;;;;;;;;;;;;6238762;22;19915;-85
2023/03/26 06:35:36;;;;;;;;;;;;;;;;;;6241066;22;19978;-85
2023/03/26 06:38:02;;;;;;;;;;;;;;;;;;6232701;22;19925;-85
2023/03/26 06:40:28;;;;;;;;;;;;;;;;;;6236508;22;19923;-85
2023/03/26 06:42:55;;;;;;;;;;;;;;;;;;6208988;22;19927;-85
2023/03/26 06:45:21;;;;;;;;;;;;;;;;;;6210813;22;19919;-85
2023/03/26 06:47:47;;;;;;;;;;;;;;;;;;6231899;22;19919;-85
2023/03/26 06:50:13;;;;;;;;;;;;;;;;;;6210535;22;19923;-85
2023/03/26 06:52:40;;;;;;;;;;;;;;;;;;6238833;22;19919;-85
2023/03/26 06:55:09;;;;;;;;;;;;;;;;;;6213725;22;19951;-85
2023/03/26 06:57:35;;;;;;;;;;;;;;;;;;6212466;22;19919;-85
2023/03/26 07:00:01;;;;;;;;;;;;;;;;;;6209540;22;20694;-85
2023/03/26 07:02:26;;;;;;;;;;;;;;;;;;6237696;22;20300;-85
2023/03/26 07:04:52;;;;;;;;;;;;;;;;;;6235157;22;19919;-85
2023/03/26 07:07:20;;;;;;;;;;;;;;;;;;6235307;22;19998;-85
2023/03/26 07:09:46;;;;;;;;;;;;;;;;;;6210341;22;19920;-85
2023/03/26 07:12:12;;;;;;;;;;;;;;;;;;6237732;22;20256;-85
2023/03/26 07:14:38;;;;;;;;;;;;;;;;;;6212655;22;19919;-85
2023/03/26 07:17:04;;;;;;;;;;;;;;;;;;6207947;22;19957;-86
2023/03/26 07:19:30;;;;;;;;;;;;;;;;;;6212248;22;20290;-85
2023/03/26 07:21:56;;;;;;;;;;;;;;;;;;6209454;22;19919;-85
2023/03/26 07:24:22;;;;;;;;;;;;;;;;;;6212254;22;20247;-85
2023/03/26 07:26:48;;;;;;;;;;;;;;;;;;6232292;22;19923;-85
2023/03/26 07:29:14;;;;;;;;;;;;;;;;;;6211122;22;20057;-85
2023/03/26 07:31:40;;;;;;;;;;;;;;;;;;6209601;22;19921;-85
2023/03/26 07:34:06;;;;;;;;;;;;;;;;;;6211235;22;20427;-85
2023/03/26 07:36:32;;;;;;;;;;;;;;;;;;6236398;22;19919;-85
2023/03/26 07:38:59;;;;;;;;;;;;;;;;;;6232136;22;20345;-85
2023/03/26 07:41:25;;;;;;;;;;;;;;;;;;6236282;22;19946;-85
2023/03/26 07:43:51;;;;;;;;;;;;;;;;;;6234063;22;19969;-86
2023/03/26 07:46:17;;;;;;;;;;;;;;;;;;6211428;22;19926;-86
2023/03/26 07:48:43;;;;;;;;;;;;;;;;;;6209667;22;19985;-86
2023/03/26 07:51:09;;;;;;;;;;;;;;;;;;6210067;22;19930;-85
2023/03/26 07:53:35;;;;;;;;;;;;;;;;;;6237250;22;20324;-85
2023/03/26 07:56:01;;;;;;;;;;;;;;;;;;6208523;22;20384;-85
2023/03/26 07:58:27;;;;;;;;;;;;;;;;;;6237292;22;19915;-85
2023/03/26 08:00:53;;;;;;;;;;;;;;;;;;6207632;22;20329;-85
2023/03/26 08:03:19;;;;;;;;;;;;;;;;;;6211756;22;19926;-85
2023/03/26 08:05:45;;;;;;;;;;;;;;;;;;6234622;22;19919;-85
2023/03/26 08:08:12;;;;;;;;;;;;;;;;;;6235234;22;20336;-85
2023/03/26 08:10:38;;;;;;;;;;;;;;;;;;6209974;22;20221;-85
2023/03/26 08:13:04;;;;;;;;;;;;;;;;;;6207556;22;20006;-85
2023/03/26 08:15:31;;;;;;;;;;;;;;;;;;6210362;22;19942;-85
2023/03/26 08:17:57;;;;;;;;;;;;;;;;;;6209424;22;19919;-85
2023/03/26 08:20:24;;;;;;;;;;;;;;;;;;6211539;22;19926;-85
2023/03/26 08:22:50;;;;;;;;;;;;;;;;;;6233785;22;19969;-85
2023/03/26 08:25:16;;;;;;;;;;;;;;;;;;6210816;22;20259;-85
2023/03/26 08:27:42;;;;;;;;;;;;;;;;;;6233664;22;19954;-85
2023/03/26 08:30:08;;;;;;;;;;;;;;;;;;6209280;22;20286;-86
2023/03/26 08:32:34;;;;;;;;;;;;;;;;;;6237046;22;19934;-85
2023/03/26 08:35:03;;;;;;;;;;;;;;;;;;6213807;22;20364;-85
2023/03/26 08:37:30;;;;;;;;;;;;;;;;;;6238392;22;19926;-85
2023/03/26 08:39:56;;;;;;;;;;;;;;;;;;6209910;22;19926;-86
2023/03/26 08:42:22;;;;;;;;;;;;;;;;;;6236573;22;19920;-86
2023/03/26 08:44:48;;;;;;;;;;;;;;;;;;6259356;22;19969;-85
2023/03/26 08:47:14;;;;;;;;;;;;;;;;;;6236063;22;19995;-86
2023/03/26 08:49:40;;;;;;;;;;;;;;;;;;6235386;22;20013;-85
2023/03/26 08:52:06;;;;;;;;;;;;;;;;;;6237368;22;19923;-85
2023/03/26 08:54:32;;;;;;;;;;;;;;;;;;6238276;22;19919;-85
2023/03/26 08:56:58;;;;;;;;;;;;;;;;;;6207256;22;19946;-85
2023/03/26 08:59:24;;;;;;;;;;;;;;;;;;6208549;22;19950;-85
2023/03/26 09:01:50;;;;;;;;;;;;;;;;;;6233440;22;19919;-85
2023/03/26 09:04:16;;;;;;;;;;;;;;;;;;6211205;22;20252;-85
2023/03/26 09:06:42;;;;;;;;;;;;;;;;;;6235754;22;19919;-85
2023/03/26 09:09:08;;;;;;;;;;;;;;;;;;6210829;22;19919;-85
2023/03/26 09:11:34;;;;;;;;;;;;;;;;;;6237480;22;19930;-85
2023/03/26 09:14:00;;;;;;;;;;;;;;;;;;6209677;22;20320;-85
2023/03/26 09:16:26;;;;;;;;;;;;;;;;;;6212458;22;20233;-85
2023/03/26 09:18:56;;;;;;;;;;;;;;;;;;6261139;22;19934;-85
2023/03/26 09:21:24;;;;;;;;;;;;;;;;;;6210904;22;19966;-85
2023/03/26 09:23:51;;;;;;;;;;;;;;;;;;6235973;22;19954;-85
2023/03/26 09:26:17;;;;;;;;;;;;;;;;;;6238272;22;19969;-85
2023/03/26 09:28:43;;;;;;;;;;;;;;;;;;6208009;22;20232;-85
2023/03/26 09:31:09;;;;;;;;;;;;;;;;;;6210761;22;19923;-85
2023/03/26 09:33:35;;;;;;;;;;;;;;;;;;6211778;22;20268;-85
2023/03/26 09:36:01;;;;;;;;;;;;;;;;;;6207952;22;19919;-85
2023/03/26 09:38:27;;;;;;;;;;;;;;;;;;6235752;22;19947;-85
2023/03/26 09:40:53;;;;;;;;;;;;;;;;;;6207252;22;19918;-85
2023/03/26 09:43:19;;;;;;;;;;;;;;;;;;6210155;22;19970;-85
2023/03/26 09:45:45;;;;;;;;;;;;;;;;;;6212437;22;19919;-85
2023/03/26 09:48:11;;;;;;;;;;;;;;;;;;6234900;22;19919;-85
2023/03/26 09:50:37;;;;;;;;;;;;;;;;;;6234982;22;20294;-85
2023/03/26 09:53:02;;;;;;;;;;;;;;;;;;6208526;22;19951;-85
2023/03/26 09:55:28;;;;;;;;;;;;;;;;;;6233061;22;20303;-85
2023/03/26 09:57:57;;;;;;;;;;;;;;;;;;6232428;22;19915;-85
2023/03/26 10:00:23;;;;;;;;;;;;;;;;;;6235001;22;20252;-86
2023/03/26 10:02:49;;;;;;;;;;;;;;;;;;6231677;22;19998;-85
2023/03/26 10:05:15;;;;;;;;;;;;;;;;;;6234760;22;19955;-85
2023/03/26 10:07:41;;;;;;;;;;;;;;;;;;6207728;22;20240;-85
2023/03/26 10:10:07;;;;;;;;;;;;;;;;;;6210081;22;19919;-85
2023/03/26 10:12:33;;;;;;;;;;;;;;;;;;6208973;22;19915;-85
2023/03/26 10:14:58;;;;;;;;;;;;;;;;;;6229693;22;19924;-85
2023/03/26 10:17:24;;;;;;;;;;;;;;;;;;6234922;22;19925;-85
2023/03/26 10:19:50;;;;;;;;;;;;;;;;;;6232520;22;19950;-85
2023/03/26 10:22:16;;;;;;;;;;;;;;;;;;6262547;22;20298;-85
2023/03/26 10:24:42;;;;;;;;;;;;;;;;;;6208482;22;20453;-84
2023/03/26 10:27:08;;;;;;;;;;;;;;;;;;6232119;22;19925;-85
2023/03/26 10:29:34;;;;;;;;;;;;;;;;;;6234156;22;19973;-85
2023/03/26 10:32:00;;;;;;;;;;;;;;;;;;6201714;23;20507;-85
2023/03/26 10:34:26;;;;;;;;;;;;;;;;;;6233692;23;19916;-85
2023/03/26 10:36:52;;;;;;;;;;;;;;;;;;6227150;23;19920;-85
2023/03/26 10:39:19;;;;;;;;;;;;;;;;;;6228700;23;20229;-85
2023/03/26 10:41:45;;;;;;;;;;;;;;;;;;6229160;23;20003;-85
2023/03/26 10:44:11;;;;;;;;;;;;;;;;;;6226200;23;20406;-85
2023/03/26 10:46:37;;;;;;;;;;;;;;;;;;6205396;23;19929;-84
2023/03/26 10:49:03;;;;;;;;;;;;;;;;;;6226850;23;19976;-85
2023/03/26 10:51:29;;;;;;;;;;;;;;;;;;6205272;23;19923;-85
2023/03/26 10:53:55;;;;;;;;;;;;;;;;;;6227895;23;20423;-84
2023/03/26 10:56:22;;;;;;;;;;;;;;;;;;6230295;23;19950;-84
2023/03/26 10:58:49;;;;;;;;;;;;;;;;;;6203021;23;19919;-85
2023/03/26 11:01:16;;;;;;;;;;;;;;;;;;6230108;23;20327;-84
2023/03/26 11:03:42;;;;;;;;;;;;;;;;;;6202170;23;19920;-85
2023/03/26 11:06:08;;;;;;;;;;;;;;;;;;6226602;23;19981;-84
2023/03/26 11:08:34;;;;;;;;;;;;;;;;;;6229608;23;19919;-84
2023/03/26 11:11:00;;;;;;;;;;;;;;;;;;6232611;23;20783;-84
2023/03/26 11:13:26;;;;;;;;;;;;;;;;;;6234605;23;19923;-84
2023/03/26 11:15:52;;;;;;;;;;;;;;;;;;6205652;23;19915;-84
2023/03/26 11:18:18;;;;;;;;;;;;;;;;;;6234309;23;20427;-84
2023/03/26 11:20:44;;;;;;;;;;;;;;;;;;6206243;23;19999;-85
2023/03/26 11:23:10;;;;;;;;;;;;;;;;;;6206963;23;20284;-84
2023/03/26 11:25:36;;;;;;;;;;;;;;;;;;6205816;23;20276;-84
2023/03/26 11:28:03;;;;;;;;;;;;;;;;;;6205445;23;19916;-85
2023/03/26 11:30:30;;;;;;;;;;;;;;;;;;6233759;23;20354;-85
2023/03/26 11:32:55;;;;;;;;;;;;;;;;;;6205933;23;20259;-84
2023/03/26 11:35:21;;;;;;;;;;;;;;;;;;6207558;23;19939;-84
2023/03/26 11:37:47;;;;;;;;;;;;;;;;;;6204572;23;19920;-85
2023/03/26 11:40:14;;;;;;;;;;;;;;;;;;6230101;23;20370;-84
2023/03/26 11:42:40;;;;;;;;;;;;;;;;;;6204316;23;19969;-84
2023/03/26 11:45:06;;;;;;;;;;;;;;;;;;6228490;23;20319;-85
2023/03/26 11:47:32;;;;;;;;;;;;;;;;;;6202674;23;20292;-84
2023/03/26 11:49:58;;;;;;;;;;;;;;;;;;6226670;23;19931;-84
2023/03/26 11:52:25;;;;;;;;;;;;;;;;;;6227385;23;19934;-84
2023/03/26 11:54:51;;;;;;;;;;;;;;;;;;6201580;23;19916;-84
2023/03/26 11:57:17;;;;;;;;;;;;;;;;;;6202889;23;20359;-84
2023/03/26 11:59:43;;;;;;;;;;;;;;;;;;6228210;23;19920;-84
2023/03/26 12:02:09;;;;;;;;;;;;;;;;;;6205228;23;19946;-84
2023/03/26 12:04:35;;;;;;;;;;;;;;;;;;6229594;23;20394;-84
2023/03/26 12:07:01;;;;;;;;;;;;;;;;;;6201483;23;20014;-84
2023/03/26 12:09:27;;;;;;;;;;;;;;;;;;6234288;23;20017;-84
2023/03/26 12:11:53;;;;;;;;;;;;;;;;;;6204132;23;19927;-84
2023/03/26 12:14:19;;;;;;;;;;;;;;;;;;6208248;23;20344;-84
2023/03/26 12:16:45;;;;;;;;;;;;;;;;;;6229116;23;19942;-84
2023/03/26 12:19:11;;;;;;;;;;;;;;;;;;6232880;23;19920;-84
2023/03/26 12:21:37;;;;;;;;;;;;;;;;;;6233165;23;19970;-84
2023/03/26 12:24:04;;;;;;;;;;;;;;;;;;6227897;23;19934;-83
2023/03/26 12:26:32;;;;;;;;;;;;;;;;;;6231413;23;19916;-84
2023/03/26 12:28:58;;;;;;;;;;;;;;;;;;6203183;23;19931;-83
2023/03/26 12:31:25;;;;;;;;;;;;;;;;;;6205425;23;19919;-84
2023/03/26 12:33:51;;;;;;;;;;;;;;;;;;6207033;23;20025;-84
2023/03/26 12:36:17;;;;;;;;;;;;;;;;;;6205613;23;19919;-84
2023/03/26 12:38:44;;;;;;;;;;;;;;;;;;6221914;23;20346;-84
2023/03/26 12:41:13;;;;;;;;;;;;;;;;;;6232350;23;19920;-83
2023/03/26 12:43:39;;;;;;;;;;;;;;;;;;6208243;23;19919;-84
2023/03/26 12:46:05;;;;;;;;;;;;;;;;;;6229529;23;19926;-84
2023/03/26 12:48:32;;;;;;;;;;;;;;;;;;6228280;23;19916;-84
2023/03/26 12:50:58;;;;;;;;;;;;;;;;;;6231928;23;20256;-84
2023/03/26 12:53:23;;;;;;;;;;;;;;;;;;6237800;23;19919;-83
2023/03/26 12:55:50;;;;;;;;;;;;;;;;;;6231809;23;19926;-84
2023/03/26 12:58:16;;;;;;;;;;;;;;;;;;6208697;23;19947;-84
2023/03/26 13:00:42;;;;;;;;;;;;;;;;;;6231771;23;19920;-84
2023/03/26 13:03:08;;;;;;;;;;;;;;;;;;6207173;23;19923;-84
2023/03/26 13:05:35;;;;;;;;;;;;;;;;;;6208150;23;20396;-84
2023/03/26 13:08:01;;;;;;;;;;;;;;;;;;6205622;23;20350;-84
2023/03/26 13:10:28;;;;;;;;;;;;;;;;;;6208128;23;19920;-83
2023/03/26 13:12:54;;;;;;;;;;;;;;;;;;6205849;23;19920;-84
2023/03/26 13:15:20;;;;;;;;;;;;;;;;;;6206421;23;19971;-84
2023/03/26 13:17:46;;;;;;;;;;;;;;;;;;6229822;23;19919;-84
2023/03/26 13:20:14;;;;;;;;;;;;;;;;;;6207319;23;19919;-84
2023/03/26 13:22:41;;;;;;;;;;;;;;;;;;6210417;23;19939;-84
2023/03/26 13:25:10;;;;;;;;;;;;;;;;;;6238082;23;19955;-84
2023/03/26 13:27:36;;;;;;;;;;;;;;;;;;6236382;23;20351;-84
2023/03/26 13:30:02;;;;;;;;;;;;;;;;;;6239694;22;19927;-84
2023/03/26 13:32:29;;;;;;;;;;;;;;;;;;6217361;22;20066;-84
2023/03/26 13:34:55;;;;;;;;;;;;;;;;;;6214631;22;20022;-84
2023/03/26 13:37:21;;;;;;;;;;;;;;;;;;6239703;22;19915;-83
2023/03/26 13:39:48;;;;;;;;;;;;;;;;;;6239448;22;19922;-84
2023/03/26 13:42:15;;;;;;;;;;;;;;;;;;6242780;22;19920;-84
2023/03/26 13:44:41;;;;;;;;;;;;;;;;;;6242168;22;19919;-84
2023/03/26 13:47:07;;;;;;;;;;;;;;;;;;6216682;22;19926;-84
2023/03/26 13:49:35;;;;;;;;;;;;;;;;;;6242018;22;19938;-84
2023/03/26 13:52:01;;;;;;;;;;;;;;;;;;6214418;22;19920;-84
2023/03/26 13:54:27;;;;;;;;;;;;;;;;;;6241205;22;20259;-84
2023/03/26 13:56:53;;;;;;;;;;;;;;;;;;6240196;22;19915;-84
2023/03/26 13:59:19;;;;;;;;;;;;;;;;;;6242536;22;19924;-84
2023/03/26 14:01:46;;;;;;;;;;;;;;;;;;6237419;22;19923;-84
2023/03/26 14:04:14;;;;;;;;;;;;;;;;;;6216991;22;20241;-84
2023/03/26 14:06:40;;;;;;;;;;;;;;;;;;6215101;22;20256;-84
2023/03/26 14:09:06;;;;;;;;;;;;;;;;;;6241692;22;19919;-84
2023/03/26 14:11:32;;;;;;;;;;;;;;;;;;6242550;22;19922;-83
2023/03/26 14:13:58;;;;;;;;;;;;;;;;;;6238639;22;20355;-83
2023/03/26 14:16:24;;;;;;;;;;;;;;;;;;6215652;22;20033;-84
2023/03/26 14:18:50;;;;;;;;;;;;;;;;;;6238251;22;19916;-83
2023/03/26 14:21:16;;;;;;;;;;;;;;;;;;6239314;22;19998;-83
2023/03/26 14:23:44;;;;;;;;;;;;;;;;;;6239070;22;20247;-84
2023/03/26 14:26:10;;;;;;;;;;;;;;;;;;6215007;22;19915;-84
2023/03/26 15:21:05;;;;;;;;;;;;;;;;;;6242681;22;20750;-84
2023/03/26 15:23:31;;;;;;;;;;;;;;;;;;6237792;22;19954;-85
2023/03/26 15:25:57;;;;;;;;;;;;;;;;;;6237511;22;19922;-85
2023/03/26 15:28:23;;;;;;;;;;;;;;;;;;6265065;22;20438;-85
2023/03/26 15:30:50;;;;;;;;;;;;;;;;;;6235554;22;20005;-84
2023/03/26 15:33:16;;;;;;;;;;;;;;;;;;6235977;22;19922;-85
2023/03/26 15:35:42;;;;;;;;;;;;;;;;;;6210209;22;19923;-84
2023/03/26 15:38:08;;;;;;;;;;;;;;;;;;6210793;22;20282;-85
2023/03/26 15:40:39;;;;;;;;;;;;;;;;;;6212130;22;20106;-85
2023/03/26 15:43:05;;;;;;;;;;;;;;;;;;6234254;22;19926;-85
2023/03/26 15:45:31;;;;;;;;;;;;;;;;;;6212906;22;19923;-85
2023/03/26 15:47:59;;;;;;;;;;;;;;;;;;6234209;22;19919;-85
2023/03/26 15:50:25;;;;;;;;;;;;;;;;;;6210189;22;19994;-84
2023/03/26 16:58:46;;;;;;;;;;;;;;;;;;6248952;22;19935;-84
2023/03/26 17:21:48;;;;;;;;;;;;;;;;;;;;;
2023/03/26 17:55:26;;;;;;;;;;;;;;;;;;6268906;22;20291;-89
2023/03/26 17:57:55;;;;;;;;;;;;;;;;;;6212253;22;20255;-90
2023/03/26 18:00:21;;;;;;;;;;;;;;;;;;6239620;22;20276;-89
2023/03/26 18:02:47;;;;;;;;;;;;;;;;;;6211074;22;19965;-90
2023/03/26 18:05:13;;;;;;;;;;;;;;;;;;6213113;22;19927;-90
2023/03/26 18:07:40;;;;;;;;;;;;;;;;;;6213845;22;20287;-91
2023/03/26 18:10:12;;;;;;;;;;;;;;;;;;6237399;22;19919;-90
2023/03/26 18:12:45;;;;;;;;;;;;;;;;;;6236940;22;19958;-91
2023/03/26 18:15:17;;;;;;;;;;;;;;;;;;6211985;22;19926;-90
2023/03/26 18:17:43;;;;;;;;;;;;;;;;;;6210758;22;19919;-90
2023/03/26 18:20:14;;;;;;;;;;;;;;;;;;6220921;22;19923;-82
2023/03/26 18:22:43;;;;;;;;;;;;;;;;;;6235429;22;19923;-82
2023/03/26 18:25:11;;;;;;;;;;;;;;;;;;6238577;22;19990;-82
2023/03/26 18:27:37;;;;;;;;;;;;;;;;;;6260530;22;20000;-83
2023/03/26 18:30:03;;;;;;;;;;;;;;;;;;6235150;22;19923;-82
2023/03/26 18:32:30;;;;;;;;;;;;;;;;;;6264840;22;19927;-82
2023/03/26 18:34:56;;;;;;;;;;;;;;;;;;6261371;22;19964;-84
2023/03/26 18:37:21;;;;;;;;;;;;;;;;;;6235817;22;20017;-84
2023/03/26 18:39:47;;;;;;;;;;;;;;;;;;6257069;22;20828;-84
2023/03/26 18:42:14;;;;;;;;;;;;;;;;;;6233439;22;20225;-84
2023/03/26 18:47:57;;;;;;;;;;;;;;;;;;6242058;22;19956;-94
2023/03/26 18:50:23;;;;;;;;;;;;;;;;;;6208864;22;20320;-91
2023/03/26 18:52:50;;;;;;;;;;;;;;;;;;6230852;22;20009;-91
2023/03/26 18:55:16;;;;;;;;;;;;;;;;;;6206538;22;20002;-91
2023/03/26 18:57:43;;;;;;;;;;;;;;;;;;6233265;22;19915;-92
2023/03/26 19:00:39;;;;;;;;;;;;;;;;;;;;;
2023/03/26 20:05:58;;;;;;;;;;;;;;;;;;6259792;22;19923;-84
2023/03/26 20:08:27;;;;;;;;;;;;;;;;;;6205824;22;19943;-84
2023/03/26 20:10:54;;;;;;;;;;;;;;;;;;6204488;22;19969;-84
2023/03/26 20:13:20;;;;;;;;;;;;;;;;;;6231201;22;19923;-84
2023/03/26 20:15:46;;;;;;;;;;;;;;;;;;6229009;22;20551;-84
2023/03/26 20:18:12;;;;;;;;;;;;;;;;;;6228404;22;19973;-84
2023/03/26 20:20:55;;;;;;;;;;;;;;;;;;6231178;22;20327;-84
2023/03/26 20:23:31;;;;;;;;;;;;;;;;;;6233348;22;19958;-84
2023/03/26 20:29:02;;;;;;;;;;;;;;;;;;6261484;22;20864;-89
2023/03/26 20:31:28;;;;;;;;;;;;;;;;;;6232341;22;19942;-91
2023/03/26 20:33:56;;;;;;;;;;;;;;;;;;6203697;22;19942;-91
2023/03/26 20:36:29;;;;;;;;;;;;;;;;;;6234869;22;20355;-91
2023/03/26 20:38:57;;;;;;;;;;;;;;;;;;6231464;22;19925;-90
2023/03/26 20:41:23;;;;;;;;;;;;;;;;;;6205471;22;19919;-90
2023/03/26 20:43:49;;;;;;;;;;;;;;;;;;6203402;22;19919;-91
2023/03/26 20:46:15;;;;;;;;;;;;;;;;;;6230928;22;19919;-91
2023/03/26 20:48:41;;;;;;;;;;;;;;;;;;6252616;22;20287;-91
2023/03/26 20:51:07;;;;;;;;;;;;;;;;;;6204692;22;19926;-90
2023/03/26 20:53:34;;;;;;;;;;;;;;;;;;6205220;22;19920;-91
2023/03/26 20:56:00;;;;;;;;;;;;;;;;;;6230344;22;19919;-91
2023/03/26 20:58:27;;;;;;;;;;;;;;;;;;6209961;22;19919;-91
2023/03/26 21:00:55;;;;;;;;;;;;;;;;;;6232909;22;19983;-90
2023/03/26 21:03:21;;;;;;;;;;;;;;;;;;6210452;22;20216;-91
2023/03/26 21:05:50;;;;;;;;;;;;;;;;;;6207439;22;20285;-91
2023/03/26 21:08:16;;;;;;;;;;;;;;;;;;6209890;22;19926;-90
2023/03/26 21:10:43;;;;;;;;;;;;;;;;;;6233972;22;19994;-90
2023/03/26 21:13:09;;;;;;;;;;;;;;;;;;6238415;22;20002;-90
2023/03/26 21:15:34;;;;;;;;;;;;;;;;;;6235871;22;20385;-90
2023/03/26 21:18:01;;;;;;;;;;;;;;;;;;6235749;22;20292;-90
2023/03/26 21:20:26;;;;;;;;;;;;;;;;;;6240925;22;19976;-90
2023/03/26 21:22:53;;;;;;;;;;;;;;;;;;6213168;22;20026;-89
2023/03/26 21:25:19;;;;;;;;;;;;;;;;;;6240876;22;20260;-90
2023/03/26 21:27:45;;;;;;;;;;;;;;;;;;6239836;22;19922;-90
2023/03/26 21:30:13;;;;;;;;;;;;;;;;;;6240333;22;20029;-90
2023/03/26 21:32:39;;;;;;;;;;;;;;;;;;6240311;22;19926;-90
2023/03/26 21:35:05;;;;;;;;;;;;;;;;;;6212256;22;19916;-90
2023/03/26 21:37:31;;;;;;;;;;;;;;;;;;6215433;22;19965;-90
2023/03/26 21:39:58;;;;;;;;;;;;;;;;;;6212175;22;19994;-90
2023/03/26 21:42:28;;;;;;;;;;;;;;;;;;6241661;22;20237;-90
2023/03/26 21:44:54;;;;;;;;;;;;;;;;;;6236260;22;19923;-90
2023/03/26 21:47:20;;;;;;;;;;;;;;;;;;6212135;22;19991;-90
2023/03/26 21:49:46;;;;;;;;;;;;;;;;;;6266711;22;20359;-91
2023/03/26 21:52:12;;;;;;;;;;;;;;;;;;6241565;22;19919;-90
2023/03/26 21:54:38;;;;;;;;;;;;;;;;;;6239368;22;20315;-91
2023/03/26 21:57:04;;;;;;;;;;;;;;;;;;6266040;22;20255;-91
2023/03/26 21:59:30;;;;;;;;;;;;;;;;;;6242791;22;19982;-91
2023/03/26 22:01:56;;;;;;;;;;;;;;;;;;6213264;22;19962;-90
2023/03/26 22:04:22;;;;;;;;;;;;;;;;;;6241589;22;19923;-90
2023/03/26 22:06:48;;;;;;;;;;;;;;;;;;6213095;22;19927;-90
2023/03/26 22:09:14;;;;;;;;;;;;;;;;;;6240485;22;20358;-90
2023/03/26 22:11:41;;;;;;;;;;;;;;;;;;6214196;22;20328;-90
2023/03/26 22:14:07;;;;;;;;;;;;;;;;;;6239318;22;19963;-90
2023/03/26 22:16:33;;;;;;;;;;;;;;;;;;6239573;22;19920;-90
2023/03/26 22:18:59;;;;;;;;;;;;;;;;;;6212103;22;19929;-91
2023/03/26 22:21:25;;;;;;;;;;;;;;;;;;6238869;22;19989;-90
2023/03/26 22:23:54;;;;;;;;;;;;;;;;;;6236738;22;19926;-90
2023/03/26 22:26:20;;;;;;;;;;;;;;;;;;6212104;22;19921;-90
2023/03/26 22:28:46;;;;;;;;;;;;;;;;;;6211543;22;19920;-90
2023/03/26 22:31:12;;;;;;;;;;;;;;;;;;6213652;22;19925;-90
2023/03/26 22:33:41;;;;;;;;;;;;;;;;;;6215651;22;19919;-91
2023/03/26 22:36:07;;;;;;;;;;;;;;;;;;6238827;22;19951;-91
2023/03/26 22:38:33;;;;;;;;;;;;;;;;;;6238998;22;19930;-91
2023/03/26 22:40:59;;;;;;;;;;;;;;;;;;6212850;22;19920;-90
2023/03/26 22:43:25;;;;;;;;;;;;;;;;;;6212952;22;19923;-90
2023/03/26 22:45:53;;;;;;;;;;;;;;;;;;6262959;22;19916;-90
2023/03/26 22:48:19;;;;;;;;;;;;;;;;;;6238938;22;19946;-90
2023/03/26 22:50:45;;;;;;;;;;;;;;;;;;6238314;22;19919;-91